Time;durP1;ratioP1;P1;durP2;ratioP2;P2;SDS_P1;SDS_P2;PMS_P1;PMS_P2;Temp;Humidity;BMP_temperature;BMP_pressure;BME280_temperature;BME280_humidity;BME280_pressure;Samples;Min_cycle;Max_cycle;Signal;HPM_P1;HPM_P2
2022/11/20 00:01:40;;;;;;;29.27;17.73;;;;;;;-3.38;100.00;101154.06;5101781;28;20024;-65
2022/11/20 00:04:06;;;;;;;29.58;18.02;;;;;;;-3.44;100.00;101153.63;5103237;28;20446;-66
2022/11/20 00:06:31;;;;;;;29.30;18.20;;;;;;;-3.47;100.00;101155.16;5104416;28;20028;-65
2022/11/20 00:08:59;;;;;;;30.67;17.90;;;;;;;-3.52;100.00;101145.38;5108157;28;20114;-67
2022/11/20 00:11:26;;;;;;;29.42;18.33;;;;;;;-3.53;100.00;101153.94;5105888;28;20024;-66
2022/11/20 00:13:54;;;;;;;28.77;17.67;;;;;;;-3.55;100.00;101155.53;5107688;28;20020;-67
2022/11/20 00:16:23;;;;;;;30.15;18.60;;;;;;;-3.67;100.00;101154.69;5106613;28;20032;-66
2022/11/20 00:18:48;;;;;;;30.10;18.67;;;;;;;-3.64;100.00;101152.34;5106878;28;20032;-67
2022/11/20 00:21:16;;;;;;;30.17;18.52;;;;;;;-3.64;100.00;101149.75;5107513;28;20367;-66
2022/11/20 00:23:42;;;;;;;30.52;19.20;;;;;;;-3.66;100.00;101151.34;5105874;28;20025;-67
2022/11/20 00:26:10;;;;;;;32.08;20.42;;;;;;;-3.74;100.00;101156.00;5108155;28;20035;-67
2022/11/20 00:28:35;;;;;;;31.30;19.42;;;;;;;-3.73;100.00;101146.53;5105036;28;20032;-67
2022/11/20 00:31:20;;;;;;;30.77;19.30;;;;;;;-3.78;100.00;101140.19;5099908;28;20458;-67
2022/11/20 00:33:46;;;;;;;31.13;19.48;;;;;;;-3.75;100.00;101145.56;5102466;28;20467;-67
2022/11/20 00:36:17;;;;;;;31.25;19.50;;;;;;;-3.84;100.00;101143.25;5107238;28;20031;-66
2022/11/20 00:38:43;;;;;;;30.48;19.52;;;;;;;-3.85;100.00;101155.25;5105852;28;20032;-66
2022/11/20 00:41:10;;;;;;;34.40;22.25;;;;;;;-3.87;100.00;101140.47;5107670;28;20039;-66
2022/11/20 00:43:36;;;;;;;33.42;20.75;;;;;;;-3.93;100.00;101147.78;5104584;28;20170;-65
2022/11/20 00:46:16;;;;;;;31.98;19.83;;;;;;;-3.93;100.00;101146.13;5100724;28;20047;-65
2022/11/20 00:48:42;;;;;;;30.15;18.80;;;;;;;-3.96;100.00;101151.09;5102977;28;20098;-66
2022/11/20 00:51:07;;;;;;;31.13;19.45;;;;;;;-3.94;100.00;101149.50;5107716;28;20035;-66
2022/11/20 00:53:33;;;;;;;31.88;19.75;;;;;;;-3.95;100.00;101141.63;5104454;28;20062;-65
2022/11/20 00:56:04;;;;;;;32.25;19.38;;;;;;;-3.96;100.00;101151.09;5107277;28;20043;-66
2022/11/20 00:58:32;;;;;;;32.10;19.65;;;;;;;-3.98;100.00;101155.22;5104565;28;20044;-66
2022/11/20 01:01:05;;;;;;;31.42;19.08;;;;;;;-4.01;100.00;101152.44;5107264;28;20466;-66
2022/11/20 01:03:32;;;;;;;30.52;19.13;;;;;;;-4.05;100.00;101142.69;5104401;28;20032;-66
2022/11/20 01:06:02;;;;;;;30.67;19.20;;;;;;;-4.09;100.00;101141.59;5107328;28;20020;-66
2022/11/20 01:08:35;;;;;;;31.40;19.58;;;;;;;-4.11;100.00;101142.28;5104496;28;20032;-67
2022/11/20 01:11:05;;;;;;;31.45;19.75;;;;;;;-4.14;100.00;101139.50;5107499;28;20032;-66
2022/11/20 01:13:37;;;;;;;31.75;19.70;;;;;;;-4.14;100.00;101134.31;5104222;28;20016;-66
2022/11/20 01:16:15;;;;;;;31.88;20.38;;;;;;;-4.15;100.00;101142.84;5100357;28;20028;-66
2022/11/20 01:18:43;;;;;;;31.80;20.05;;;;;;;-4.23;100.00;101150.97;5100856;28;20028;-66
2022/11/20 01:21:16;;;;;;;32.88;20.45;;;;;;;-4.29;100.00;101150.56;5107027;28;20028;-67
2022/11/20 01:23:43;;;;;;;31.90;20.13;;;;;;;-4.26;100.00;101139.56;5104683;28;20032;-66
2022/11/20 01:26:11;;;;;;;33.00;21.10;;;;;;;-4.27;100.00;101143.81;5107107;28;20085;-66
2022/11/20 01:28:38;;;;;;;32.65;20.85;;;;;;;-4.29;100.00;101149.69;5103707;28;20032;-66
2022/11/20 01:31:24;;;;;;;32.40;20.95;;;;;;;-4.31;100.00;101154.72;5107135;28;20058;-66
2022/11/20 01:33:52;;;;;;;32.25;20.85;;;;;;;-4.34;100.00;101151.91;5103924;28;20020;-66
2022/11/20 01:36:19;;;;;;;32.60;21.33;;;;;;;-4.34;100.00;101146.75;5105675;28;20482;-66
2022/11/20 01:38:44;;;;;;;32.58;20.70;;;;;;;-4.34;100.00;101141.59;5104857;28;20063;-66
2022/11/20 01:43:20;;;;;;;32.55;20.83;;;;;;;-4.38;100.00;101135.34;5106508;28;20466;-66
2022/11/20 01:43:57;;;;;;;32.38;20.95;;;;;;;-4.36;100.00;101137.13;5106311;28;20549;-66
2022/11/20 01:46:23;;;;;;;31.65;20.55;;;;;;;-4.39;100.00;101145.56;5104981;28;20378;-66
2022/11/20 01:49:02;;;;;;;31.60;20.13;;;;;;;-4.44;100.00;101134.00;5103769;28;20039;-65
2022/11/20 01:51:42;;;;;;;31.83;20.65;;;;;;;-4.46;100.00;101138.19;5103823;28;20475;-65
2022/11/20 01:54:15;;;;;;;32.45;20.77;;;;;;;-4.54;100.00;101145.38;5100271;28;20028;-69
2022/11/20 01:56:44;;;;;;;32.15;20.45;;;;;;;-4.56;100.00;101152.09;5104816;28;20044;-65
2022/11/20 01:59:13;;;;;;;32.67;20.85;;;;;;;-4.59;100.00;101144.16;5103684;28;20032;-66
2022/11/20 02:01:38;;;;;;;31.58;19.95;;;;;;;-4.63;100.00;101152.47;5106319;27;20035;-66
2022/11/20 02:04:05;;;;;;;32.00;20.23;;;;;;;-4.63;100.00;101143.06;5102964;28;20028;-66
2022/11/20 02:06:37;;;;;;;32.92;21.23;;;;;;;-4.59;100.00;101139.91;5106535;28;20431;-65
2022/11/20 02:09:03;;;;;;;32.17;20.15;;;;;;;-4.61;100.00;101140.59;5099105;28;20360;-65
2022/11/20 02:11:30;;;;;;;33.30;20.67;;;;;;;-4.64;100.00;101146.41;5105798;28;20039;-65
2022/11/20 02:13:55;;;;;;;32.47;20.85;;;;;;;-4.60;100.00;101137.19;5103859;28;20092;-65
2022/11/20 02:16:45;;;;;;;34.00;21.20;;;;;;;-4.60;100.00;101135.53;5104816;28;20107;-66
2022/11/20 02:19:36;;;;;;;34.45;21.58;;;;;;;-4.59;100.00;101132.19;5095142;28;20040;-66
2022/11/20 02:22:19;;;;;;;31.60;20.48;;;;;;;-4.61;100.00;101130.28;5096689;28;20071;-66
2022/11/20 02:24:47;;;;;;;32.45;20.13;;;;;;;-4.61;100.00;101136.31;5100231;28;20050;-66
2022/11/20 02:27:14;;;;;;;32.33;20.20;;;;;;;-4.61;100.00;101133.72;5103458;28;20024;-65
2022/11/20 02:29:52;;;;;;;32.50;21.13;;;;;;;-4.58;100.00;101122.72;5105758;28;20030;-67
2022/11/20 02:32:30;;;;;;;33.85;21.60;;;;;;;-4.60;100.00;101121.72;5104064;28;20430;-65
2022/11/20 02:34:56;;;;;;;32.92;21.45;;;;;;;-4.59;100.00;101123.50;5103661;28;20020;-65
2022/11/20 02:37:23;;;;;;;32.72;20.95;;;;;;;-4.63;100.00;101121.50;5104331;28;20060;-66
2022/11/20 02:39:51;;;;;;;31.75;19.80;;;;;;;-4.66;100.00;101121.28;5104366;28;20572;-66
2022/11/20 02:42:16;;;;;;;31.75;20.17;;;;;;;-4.76;100.00;101122.31;5103728;28;20020;-65
2022/11/20 02:44:42;;;;;;;31.85;19.70;;;;;;;-4.81;100.00;101126.28;5105138;28;20057;-65
2022/11/20 02:47:08;;;;;;;31.70;19.52;;;;;;;-4.76;100.00;101114.59;5102237;28;20076;-66
2022/11/20 02:49:33;;;;;;;31.15;20.08;;;;;;;-4.68;100.00;101122.88;5104875;28;20023;-65
2022/11/20 02:51:59;;;;;;;30.95;20.00;;;;;;;-4.53;100.00;101134.25;5102877;28;20049;-66
2022/11/20 02:54:25;;;;;;;32.22;19.60;;;;;;;-4.41;100.00;101123.91;5104715;28;20455;-65
2022/11/20 02:56:50;;;;;;;32.83;21.23;;;;;;;-4.29;100.00;101121.28;5103581;27;20126;-65
2022/11/20 02:59:16;;;;;;;32.53;20.33;;;;;;;-4.21;100.00;101117.50;5103184;28;20128;-65
2022/11/20 03:01:41;;;;;;;33.00;20.80;;;;;;;-4.10;100.00;101113.97;5105291;28;20034;-66
2022/11/20 03:04:06;;;;;;;33.80;21.55;;;;;;;-4.03;100.00;101113.59;5101989;28;20129;-65
2022/11/20 03:06:32;;;;;;;34.58;21.67;;;;;;;-3.99;100.00;101113.81;5105321;28;20106;-65
2022/11/20 03:08:57;;;;;;;32.97;21.35;;;;;;;-3.93;100.00;101107.38;5102580;28;20044;-65
2022/11/20 03:11:23;;;;;;;33.08;21.38;;;;;;;-3.86;100.00;101117.31;5104011;28;20032;-65
2022/11/20 03:13:48;;;;;;;32.08;21.08;;;;;;;-3.83;100.00;101110.56;5103722;28;20063;-65
2022/11/20 03:16:16;;;;;;;33.47;21.55;;;;;;;-3.78;100.00;101123.00;5102834;28;20035;-65
2022/11/20 03:18:42;;;;;;;32.13;20.90;;;;;;;-3.78;100.00;101114.34;5104531;28;20020;-65
2022/11/20 03:21:09;;;;;;;32.22;20.77;;;;;;;-3.71;100.00;101112.28;5101590;28;20120;-66
2022/11/20 03:23:35;;;;;;;32.47;21.27;;;;;;;-3.63;100.00;101105.00;5105329;28;20482;-66
2022/11/20 03:26:18;;;;;;;32.90;21.60;;;;;;;-3.56;100.00;101112.38;5101607;28;20459;-65
2022/11/20 03:28:52;;;;;;;32.38;20.73;;;;;;;-3.57;100.00;101100.25;5099748;28;20020;-66
2022/11/20 03:31:21;;;;;;;33.60;22.65;;;;;;;-3.55;100.00;101108.13;5103582;27;20043;-65
2022/11/20 03:33:46;;;;;;;32.78;21.38;;;;;;;-3.58;100.00;101092.38;5102819;28;20402;-65
2022/11/20 03:36:14;;;;;;;32.13;21.15;;;;;;;-3.52;100.00;101098.84;5104360;28;20024;-66
2022/11/20 03:38:40;;;;;;;32.58;21.50;;;;;;;-3.54;100.00;101094.38;5101462;28;20070;-67
2022/11/20 03:41:08;;;;;;;32.25;20.80;;;;;;;-3.48;100.00;101093.88;5104649;28;20024;-67
2022/11/20 03:43:34;;;;;;;32.20;20.95;;;;;;;-3.48;100.00;101083.53;5097132;28;20024;-66
2022/11/20 03:45:59;;;;;;;31.83;20.48;;;;;;;-3.53;100.00;101073.78;5104314;28;20031;-67
2022/11/20 03:48:25;;;;;;;31.83;20.77;;;;;;;-3.51;100.00;101079.06;5102403;28;20056;-69
2022/11/20 03:51:10;;;;;;;33.47;20.88;;;;;;;-3.51;100.00;101082.56;5103301;28;20028;-68
2022/11/20 03:53:35;;;;;;;32.15;21.30;;;;;;;-3.53;100.00;101081.56;5097411;28;20424;-66
2022/11/20 03:56:00;;;;;;;32.03;20.98;;;;;;;-3.52;100.00;101075.59;5104090;28;20139;-67
2022/11/20 03:58:26;;;;;;;32.13;21.40;;;;;;;-3.53;100.00;101071.22;5102388;28;20094;-67
2022/11/20 04:00:51;;;;;;;33.63;21.85;;;;;;;-3.59;100.00;101062.19;5103175;28;20498;-67
2022/11/20 04:03:16;;;;;;;33.42;22.00;;;;;;;-3.68;100.00;101059.91;5102202;28;20055;-66
2022/11/20 04:05:42;;;;;;;32.40;20.95;;;;;;;-3.71;100.00;101060.59;5101672;28;20028;-67
2022/11/20 04:08:07;;;;;;;32.13;20.52;;;;;;;-3.78;100.00;101062.69;5104523;28;20065;-68
2022/11/20 04:10:33;;;;;;;33.03;21.60;;;;;;;-3.88;100.00;101064.63;5101044;28;20068;-67
2022/11/20 04:12:58;;;;;;;34.15;22.15;;;;;;;-3.93;100.00;101065.13;5104234;28;20031;-67
2022/11/20 04:15:23;;;;;;;33.75;22.27;;;;;;;-3.94;100.00;101064.25;5102356;28;20027;-66
2022/11/20 04:17:48;;;;;;;32.92;21.55;;;;;;;-4.07;100.00;101070.28;5102636;28;20032;-67
2022/11/20 04:20:14;;;;;;;34.97;22.50;;;;;;;-4.02;100.00;101062.81;5103882;28;20027;-67
2022/11/20 04:22:39;;;;;;;33.90;22.35;;;;;;;-4.11;100.00;101070.84;5101141;28;20475;-66
2022/11/20 04:25:05;;;;;;;33.88;22.65;;;;;;;-4.15;100.00;101067.97;5104624;28;20390;-68
2022/11/20 04:27:30;;;;;;;33.75;21.90;;;;;;;-4.12;100.00;101063.91;5101097;28;20039;-67
2022/11/20 04:29:56;;;;;;;34.45;22.52;;;;;;;-4.13;100.00;101061.25;5103281;28;20356;-67
2022/11/20 04:32:21;;;;;;;35.03;23.23;;;;;;;-4.14;100.00;101054.28;5102609;28;20093;-67
2022/11/20 04:34:46;;;;;;;34.80;23.23;;;;;;;-4.18;100.00;101054.84;5101997;28;20425;-69
2022/11/20 04:37:12;;;;;;;34.25;22.55;;;;;;;-4.17;100.00;101052.38;5102428;28;20140;-67
2022/11/20 04:39:37;;;;;;;34.88;23.00;;;;;;;-4.23;100.00;101058.03;5101271;28;20036;-67
2022/11/20 04:44:46;;;;;;;33.08;22.35;;;;;;;-4.31;100.00;101050.56;5099765;28;20055;-68
2022/11/20 04:47:11;;;;;;;35.53;22.67;;;;;;;-4.32;100.00;101047.09;5103629;28;20035;-67
2022/11/20 04:49:37;;;;;;;34.75;22.67;;;;;;;-4.37;100.00;101053.59;5099613;28;20032;-67
2022/11/20 04:52:02;;;;;;;36.13;22.27;;;;;;;-4.36;100.00;101047.66;5104373;28;20023;-69
2022/11/20 04:54:28;;;;;;;34.00;22.35;;;;;;;-4.45;100.00;101045.34;5105436;28;20654;-66
2022/11/20 04:56:53;;;;;;;34.28;22.92;;;;;;;-4.43;100.00;101036.00;5106214;28;20556;-68
2022/11/20 04:59:18;;;;;;;34.67;22.33;;;;;;;-4.52;100.00;101055.16;5106499;28;20509;-68
2022/11/20 05:01:43;;;;;;;35.00;23.23;;;;;;;-4.49;100.00;101047.63;5105446;28;20534;-69
2022/11/20 05:04:09;;;;;;;35.03;23.05;;;;;;;-4.48;100.00;101037.41;5107663;28;20359;-68
2022/11/20 05:06:34;;;;;;;36.50;23.77;;;;;;;-4.45;100.00;101039.31;5104213;28;20479;-67
2022/11/20 05:09:00;;;;;;;36.05;23.42;;;;;;;-4.48;100.00;101049.44;5107129;28;20386;-67
2022/11/20 05:11:28;;;;;;;35.38;23.25;;;;;;;-4.52;100.00;101043.16;5105266;28;20355;-66
2022/11/20 05:13:54;;;;;;;34.88;22.80;;;;;;;-4.51;100.00;101034.63;5106188;28;20434;-68
2022/11/20 05:16:22;;;;;;;34.85;23.50;;;;;;;-4.41;100.00;101033.56;5104923;28;20055;-67
2022/11/20 05:18:47;;;;;;;36.45;24.25;;;;;;;-4.39;100.00;101029.38;5105181;28;20024;-65
2022/11/20 05:21:14;;;;;;;35.83;24.27;;;;;;;-4.32;100.00;101031.59;5106842;27;20023;-65
2022/11/20 05:23:40;;;;;;;35.42;23.27;;;;;;;-4.31;100.00;101023.06;5102968;28;20042;-65
2022/11/20 05:26:07;;;;;;;36.28;23.92;;;;;;;-4.24;100.00;101021.78;5107335;28;20531;-65
2022/11/20 05:28:33;;;;;;;35.72;23.70;;;;;;;-4.21;100.00;101019.38;5104132;28;20040;-66
2022/11/20 05:31:12;;;;;;;35.10;23.67;;;;;;;-4.12;100.00;101020.03;5106759;28;20035;-65
2022/11/20 05:33:40;;;;;;;35.78;23.90;;;;;;;-4.09;100.00;101019.31;5100257;28;20032;-65
2022/11/20 05:36:06;;;;;;;36.97;24.17;;;;;;;-4.04;100.00;101023.97;5099976;28;20425;-66
2022/11/20 05:38:32;;;;;;;35.33;23.48;;;;;;;-4.03;100.00;101019.72;5106972;28;20039;-69
2022/11/20 05:41:11;;;;;;;35.22;23.00;;;;;;;-4.00;100.00;101017.34;5104717;27;20028;-65
2022/11/20 05:43:38;;;;;;;34.50;23.35;;;;;;;-3.98;100.00;101020.91;5100186;28;20025;-65
2022/11/20 05:46:05;;;;;;;35.13;23.73;;;;;;;-3.94;100.00;101022.03;5106928;28;20032;-65
2022/11/20 05:48:31;;;;;;;35.53;22.95;;;;;;;-3.85;100.00;101036.41;5103993;28;20112;-65
2022/11/20 05:50:58;;;;;;;35.20;22.92;;;;;;;-3.72;100.00;101035.53;5105737;28;20478;-65
2022/11/20 05:53:24;;;;;;;35.15;23.00;;;;;;;-3.62;100.00;101037.03;5104806;28;20019;-65
2022/11/20 05:56:00;;;;;;;33.35;22.42;;;;;;;-3.58;100.00;101046.78;5104591;28;20387;-65
2022/11/20 05:58:26;;;;;;;34.03;22.58;;;;;;;-3.50;100.00;101040.38;5104746;28;20028;-65
2022/11/20 06:00:51;;;;;;;36.40;23.50;;;;;;;-3.40;100.00;101051.34;5104899;28;20482;-66
2022/11/20 06:03:16;;;;;;;33.60;22.58;;;;;;;-3.35;100.00;101049.91;5105180;28;20023;-68
2022/11/20 06:05:42;;;;;;;36.05;22.48;;;;;;;-3.34;100.00;101050.00;5103482;28;20024;-65
2022/11/20 06:08:07;;;;;;;34.83;22.58;;;;;;;-3.26;100.00;101054.78;5106508;28;20036;-65
2022/11/20 06:10:32;;;;;;;34.75;22.08;;;;;;;-3.18;100.00;101046.72;5103365;28;20039;-65
2022/11/20 06:12:58;;;;;;;35.72;23.45;;;;;;;-3.13;100.00;101059.94;5104261;28;20043;-65
2022/11/20 06:15:24;;;;;;;34.38;22.75;;;;;;;-3.06;100.00;101053.44;5104398;28;20059;-65
2022/11/20 06:17:52;;;;;;;35.28;23.90;;;;;;;-3.11;100.00;101053.16;5104366;28;20023;-66
2022/11/20 06:20:18;;;;;;;35.38;23.75;;;;;;;-3.10;100.00;101046.28;5105063;28;20092;-65
2022/11/20 06:22:43;;;;;;;35.65;24.67;;;;;;;-3.00;100.00;101051.25;5103278;28;20119;-65
2022/11/20 06:25:08;;;;;;;35.30;24.52;;;;;;;-2.96;100.00;101039.41;5106452;28;20058;-65
2022/11/20 06:27:34;;;;;;;37.58;24.80;;;;;;;-2.88;100.00;101043.38;5102683;28;20067;-65
2022/11/20 06:29:59;;;;;;;35.97;24.38;;;;;;;-2.84;100.00;101040.16;5105296;28;20036;-65
2022/11/20 06:32:24;;;;;;;35.78;24.42;;;;;;;-2.75;100.00;101056.25;5104205;28;20038;-65
2022/11/20 06:34:50;;;;;;;38.03;25.95;;;;;;;-2.75;100.00;101045.00;5103958;28;20020;-65
2022/11/20 06:37:15;;;;;;;36.85;25.00;;;;;;;-2.72;100.00;101047.75;5105157;28;20035;-65
2022/11/20 06:39:40;;;;;;;36.40;24.75;;;;;;;-2.72;100.00;101042.59;5101528;28;20024;-65
2022/11/20 06:42:05;;;;;;;36.45;25.42;;;;;;;-2.72;100.00;101040.00;5105932;28;20102;-65
2022/11/20 06:44:31;;;;;;;42.85;30.98;;;;;;;-2.74;100.00;101036.44;5103084;28;20024;-65
2022/11/20 06:46:56;;;;;;;43.22;32.58;;;;;;;-2.71;100.00;101034.94;5104601;28;20059;-65
2022/11/20 06:49:21;;;;;;;43.13;31.42;;;;;;;-2.69;100.00;101035.03;5102728;28;20039;-65
2022/11/20 06:51:47;;;;;;;37.72;27.83;;;;;;;-2.73;100.00;101027.88;5103369;28;20036;-68
2022/11/20 06:54:12;;;;;;;37.45;27.33;;;;;;;-2.77;100.00;101019.03;5105235;28;20051;-66
2022/11/20 06:56:37;;;;;;;37.22;25.98;;;;;;;-2.78;100.00;101030.19;5101979;28;20059;-66
2022/11/20 06:59:07;;;;;;;36.42;24.88;;;;;;;-2.73;100.00;101033.06;5105396;28;20035;-68
2022/11/20 07:01:32;;;;;;;36.30;25.55;;;;;;;-2.73;100.00;101028.75;5102364;28;20035;-67
2022/11/20 07:03:58;;;;;;;37.03;25.38;;;;;;;-2.68;100.00;101036.81;5104379;28;20028;-67
2022/11/20 07:06:23;;;;;;;35.63;24.27;;;;;;;-2.65;100.00;101031.81;5103691;28;20031;-67
2022/11/20 07:08:51;;;;;;;37.08;25.65;;;;;;;-2.60;100.00;101034.69;5102868;28;20060;-67
2022/11/20 07:11:16;;;;;;;37.92;24.60;;;;;;;-2.58;100.00;101033.97;5104449;28;20359;-66
2022/11/20 07:13:41;;;;;;;36.20;23.92;;;;;;;-2.56;100.00;101027.22;5102166;28;20028;-67
2022/11/20 07:16:08;;;;;;;35.15;23.02;;;;;;;-2.53;100.00;101023.91;5104731;28;20478;-66
2022/11/20 07:18:34;;;;;;;34.30;23.98;;;;;;;-2.50;100.00;101011.16;5101878;28;20023;-66
2022/11/20 07:21:04;;;;;;;34.88;23.58;;;;;;;-2.46;100.00;101029.53;5104453;28;20032;-66
2022/11/20 07:23:30;;;;;;;34.90;23.17;;;;;;;-2.37;100.00;101023.13;5102370;28;20406;-69
2022/11/20 07:25:55;;;;;;;35.83;23.17;;;;;;;-2.38;100.00;101022.22;5103606;28;20024;-66
2022/11/20 07:28:20;;;;;;;35.25;23.10;;;;;;;-2.33;100.00;101018.22;5103676;28;20031;-67
2022/11/20 07:30:51;;;;;;;34.67;23.08;;;;;;;-2.30;100.00;101020.06;5100921;28;20055;-67
2022/11/20 07:33:16;;;;;;;33.67;22.50;;;;;;;-2.32;100.00;101022.56;5104009;28;20062;-67
2022/11/20 07:35:41;;;;;;;34.30;22.25;;;;;;;-2.29;100.00;101029.63;5101840;28;20052;-67
2022/11/20 07:38:07;;;;;;;33.88;22.75;;;;;;;-2.28;100.00;101011.59;5104953;28;20066;-66
2022/11/20 07:40:33;;;;;;;34.13;23.15;;;;;;;-2.25;100.00;101018.66;5101706;28;20032;-66
2022/11/20 07:42:58;;;;;;;33.83;22.58;;;;;;;-2.23;100.00;101011.88;5103926;28;20054;-68
2022/11/20 07:45:24;;;;;;;33.60;23.17;;;;;;;-2.16;100.00;101002.78;5103160;28;20069;-65
2022/11/20 07:47:50;;;;;;;34.67;22.48;;;;;;;-2.11;100.00;101011.72;5102484;28;20061;-65
2022/11/20 07:50:16;;;;;;;34.78;22.52;;;;;;;-2.05;100.00;101009.47;5104278;28;20540;-65
2022/11/20 07:52:42;;;;;;;32.97;22.55;;;;;;;-2.01;100.00;101015.72;5101300;28;20038;-65
2022/11/20 07:55:08;;;;;;;34.13;23.23;;;;;;;-1.91;100.00;101015.44;5104913;28;20031;-65
2022/11/20 07:57:34;;;;;;;34.88;23.65;;;;;;;-1.81;100.00;101016.88;5101431;28;20110;-65
2022/11/20 07:59:59;;;;;;;34.40;23.85;;;;;;;-1.76;100.00;101016.31;5103929;28;20025;-65
2022/11/20 08:02:24;;;;;;;35.45;25.23;;;;;;;-1.67;100.00;101021.13;5102880;28;20023;-65
2022/11/20 08:04:51;;;;;;;34.00;24.30;;;;;;;-1.55;100.00;101028.72;5100952;28;20043;-65
2022/11/20 08:07:16;;;;;;;34.35;25.95;;;;;;;-1.54;100.00;101027.91;5103610;28;20027;-65
2022/11/20 08:09:42;;;;;;;35.75;25.85;;;;;;;-1.53;100.00;101021.94;5101314;28;20387;-66
2022/11/20 08:14:51;;;;;;;36.47;26.63;;;;;;;-1.38;100.00;101020.97;5100654;28;20043;-65
2022/11/20 08:17:16;;;;;;;37.13;27.20;;;;;;;-1.30;100.00;101004.13;5103953;28;20382;-66
2022/11/20 08:19:42;;;;;;;34.72;25.73;;;;;;;-1.28;100.00;101006.00;5101180;28;20467;-65
2022/11/20 08:22:07;;;;;;;35.95;26.50;;;;;;;-1.31;100.00;101020.50;5104372;28;20035;-65
2022/11/20 08:24:32;;;;;;;36.15;26.42;;;;;;;-1.30;100.00;101014.50;5101427;28;20055;-65
2022/11/20 08:26:59;;;;;;;36.47;26.92;;;;;;;-1.26;100.00;101008.69;5105584;28;20379;-66
2022/11/20 08:29:25;;;;;;;35.22;26.35;;;;;;;-1.17;100.00;101014.38;5106576;28;20111;-65
2022/11/20 08:31:51;;;;;;;37.10;27.90;;;;;;;-1.12;100.00;101012.00;5106470;28;20442;-69
2022/11/20 08:34:16;;;;;;;36.05;27.02;;;;;;;-1.04;100.00;101015.03;5107985;28;20055;-68
2022/11/20 08:36:41;;;;;;;35.60;24.40;;;;;;;-1.09;100.00;101018.28;5104859;28;20057;-69
2022/11/20 08:39:07;;;;;;;34.58;24.48;;;;;;;-1.08;100.00;101012.28;5108388;28;20028;-67
2022/11/20 08:41:32;;;;;;;35.00;22.98;;;;;;;-0.93;100.00;101014.81;5105374;28;20114;-70
2022/11/20 08:44:03;;;;;;;33.33;23.45;;;;;;;-0.79;100.00;101012.03;5107271;28;20038;-67
2022/11/20 08:46:33;;;;;;;34.92;23.42;;;;;;;-0.62;100.00;101008.63;5105615;28;20024;-68
2022/11/20 08:48:59;;;;;;;33.33;22.77;;;;;;;-0.48;100.00;101004.16;5107179;28;20028;-68
2022/11/20 08:51:24;;;;;;;33.05;22.83;;;;;;;-0.24;100.00;101006.22;5106136;28;20042;-69
2022/11/20 08:53:50;;;;;;;33.13;22.80;;;;;;;0.03;100.00;101006.72;5105590;28;20024;-70
2022/11/20 08:56:16;;;;;;;33.22;22.60;;;;;;;0.24;100.00;101012.06;5107537;28;20048;-68
2022/11/20 08:58:42;;;;;;;32.53;22.33;;;;;;;0.31;100.00;101006.34;5104454;28;20024;-70
2022/11/20 09:01:07;;;;;;;32.47;21.52;;;;;;;0.37;100.00;101004.88;5108135;28;20085;-70
2022/11/20 09:03:33;;;;;;;43.55;28.33;;;;;;;0.38;100.00;101001.44;5105003;28;20454;-71
2022/11/20 09:06:00;;;;;;;32.97;22.20;;;;;;;0.39;100.00;100998.03;5106415;28;20467;-72
2022/11/20 09:08:25;;;;;;;32.15;22.13;;;;;;;0.38;100.00;100996.25;5105877;28;20416;-71
2022/11/20 09:10:52;;;;;;;32.60;21.80;;;;;;;0.36;100.00;100997.88;5105621;28;20077;-71
2022/11/20 09:13:17;;;;;;;33.53;22.52;;;;;;;0.32;100.00;100992.53;5106754;28;20356;-69
2022/11/20 09:15:43;;;;;;;34.67;22.13;;;;;;;0.37;100.00;100992.75;5103289;28;20032;-68
2022/11/20 09:18:08;;;;;;;32.63;21.45;;;;;;;0.41;100.00;100997.28;5107664;27;20139;-70
2022/11/20 09:20:33;;;;;;;34.50;22.65;;;;;;;0.47;100.00;100992.38;5104410;28;20404;-70
2022/11/20 09:22:59;;;;;;;34.92;22.38;;;;;;;0.50;100.00;100982.09;5106470;28;20530;-69
2022/11/20 09:25:25;;;;;;;35.25;21.88;;;;;;;0.55;100.00;100981.44;5105614;28;20397;-69
2022/11/20 09:27:57;;;;;;;35.22;22.48;;;;;;;0.62;100.00;100979.19;5105164;28;20387;-69
2022/11/20 09:30:23;;;;;;;38.53;24.08;;;;;;;0.72;100.00;100980.53;5105826;28;20042;-69
2022/11/20 09:32:48;;;;;;;37.10;23.42;;;;;;;0.84;100.00;100972.38;5104617;28;20387;-69
2022/11/20 09:35:14;;;;;;;34.95;22.75;;;;;;;0.97;100.00;100968.63;5106937;28;20020;-68
2022/11/20 09:37:40;;;;;;;36.97;23.50;;;;;;;1.00;100.00;100964.44;5103207;28;20502;-68
2022/11/20 09:40:06;;;;;;;37.72;23.58;;;;;;;1.09;100.00;100957.88;5106959;28;20024;-69
2022/11/20 09:42:59;;;;;;;38.35;23.98;;;;;;;1.11;100.00;100959.72;5104111;28;20055;-68
2022/11/20 09:45:30;;;;;;;37.58;23.67;;;;;;;1.21;100.00;100948.00;5103745;28;20036;-69
2022/11/20 09:48:26;;;;;;;37.30;24.55;;;;;;;1.26;100.00;100956.03;5104872;28;20039;-68
2022/11/20 09:51:13;;;;;;;38.38;24.75;;;;;;;1.22;100.00;100952.38;5102659;28;20028;-68
2022/11/20 09:53:47;;;;;;;41.28;24.75;;;;;;;1.14;100.00;100946.84;5099366;28;20450;-68
2022/11/20 09:56:13;;;;;;;41.05;24.67;;;;;;;1.14;100.00;100943.34;5099622;28;20048;-69
2022/11/20 09:58:42;;;;;;;40.75;26.45;;;;;;;1.14;100.00;100951.16;5105723;28;20103;-68
2022/11/20 10:01:22;;;;;;;40.95;26.42;;;;;;;1.11;100.00;100936.28;5099129;28;20077;-66
2022/11/20 10:03:53;;;;;;;42.33;26.50;;;;;;;1.17;100.00;100936.56;5100998;28;20444;-66
2022/11/20 10:06:27;;;;;;;42.00;26.35;;;;;;;1.24;100.00;100931.59;5105643;28;20023;-66
2022/11/20 10:09:08;;;;;;;42.75;26.60;;;;;;;1.35;100.00;100915.59;5104630;28;20420;-66
2022/11/20 10:11:56;;;;;;;41.72;26.25;;;;;;;1.45;100.00;100921.22;5103675;28;20028;-66
2022/11/20 10:15:10;;;;;;;40.63;25.70;;;;;;;1.58;100.00;100910.50;5102474;28;20038;-67
2022/11/20 10:17:51;;;;;;;42.30;26.40;;;;;;;1.66;100.00;100903.91;5078625;28;20487;-67
2022/11/20 10:20:35;;;;;;;40.40;25.27;;;;;;;1.71;100.00;100902.34;5100666;28;20032;-67
2022/11/20 10:23:11;;;;;;;40.95;26.27;;;;;;;1.72;100.00;100885.03;5103657;28;20513;-67
2022/11/20 10:25:49;;;;;;;42.92;26.45;;;;;;;1.71;100.00;100880.63;5106176;28;20024;-66
2022/11/20 10:28:30;;;;;;;43.72;26.77;;;;;;;1.83;100.00;100880.22;5100146;28;20036;-66
2022/11/20 10:31:10;;;;;;;43.15;27.25;;;;;;;1.86;100.00;100864.69;5104472;28;20477;-67
2022/11/20 10:33:43;;;;;;;46.13;29.15;;;;;;;1.80;100.00;100864.47;5106024;28;20035;-67
2022/11/20 10:36:20;;;;;;;46.75;29.27;;;;;;;1.77;100.00;100853.91;5098622;28;20073;-66
2022/11/20 10:38:50;;;;;;;47.97;28.95;;;;;;;1.82;100.00;100855.88;5099930;28;20055;-66
2022/11/20 10:41:31;;;;;;;49.28;29.33;;;;;;;1.87;100.00;100850.84;5105626;28;20511;-67
2022/11/20 10:44:05;;;;;;;51.70;31.08;;;;;;;1.88;100.00;100842.22;5104469;28;20035;-67
2022/11/20 10:46:40;;;;;;;48.03;29.83;;;;;;;1.97;100.00;100841.69;5103476;28;20034;-67
2022/11/20 10:49:24;;;;;;;48.42;29.73;;;;;;;2.12;100.00;100838.78;5105285;28;20035;-67
2022/11/20 10:52:01;;;;;;;47.33;30.20;;;;;;;2.16;100.00;100836.34;5100370;28;20085;-67
2022/11/20 10:54:27;;;;;;;48.05;29.35;;;;;;;2.22;100.00;100825.25;5103820;28;20081;-67
2022/11/20 10:56:59;;;;;;;49.88;30.30;;;;;;;2.28;100.00;100820.25;5101966;28;20036;-67
2022/11/20 10:59:41;;;;;;;48.65;30.27;;;;;;;2.26;100.00;100817.59;5103944;28;20023;-67
2022/11/20 11:02:20;;;;;;;45.38;28.67;;;;;;;2.28;100.00;100806.34;5105400;28;20019;-67
2022/11/20 11:04:47;;;;;;;46.75;30.02;;;;;;;2.27;100.00;100808.03;5099311;28;20165;-67
2022/11/20 11:07:31;;;;;;;44.92;28.45;;;;;;;2.35;100.00;100806.59;5105314;28;20020;-68
2022/11/20 11:09:57;;;;;;;45.42;29.65;;;;;;;2.31;100.00;100802.09;5102410;28;20028;-67
2022/11/20 11:12:25;;;;;;;46.85;29.40;;;;;;;2.24;100.00;100801.00;5103963;28;20152;-67
2022/11/20 11:14:53;;;;;;;45.25;28.85;;;;;;;2.17;100.00;100798.09;5103026;28;20050;-67